sensor_id;sensor_type;location;lat;lon;timestamp;P1;durP1;ratioP1;P2;durP2;ratioP2
20170;SDS011;10245;51.344;6.620;2022-11-04T00:00:39;1.45;;;1.30;;
20170;SDS011;10245;51.344;6.620;2022-11-04T00:03:03;6.53;;;1.63;;
20170;SDS011;10245;51.344;6.620;2022-11-04T00:05:27;2.55;;;1.50;;
20170;SDS011;10245;51.344;6.620;2022-11-04T00:07:50;1.75;;;1.40;;
20170;SDS011;10245;51.344;6.620;2022-11-04T00:10:32;1.60;;;1.50;;
20170;SDS011;10245;51.344;6.620;2022-11-04T00:13:13;1.98;;;1.60;;
20170;SDS011;10245;51.344;6.620;2022-11-04T00:15:36;2.47;;;1.70;;
20170;SDS011;10245;51.344;6.620;2022-11-04T00:18:17;2.42;;;1.73;;
20170;SDS011;10245;51.344;6.620;2022-11-04T00:20:40;3.42;;;1.67;;
20170;SDS011;10245;51.344;6.620;2022-11-04T00:23:21;3.08;;;1.60;;
20170;SDS011;10245;51.344;6.620;2022-11-04T00:26:03;2.60;;;1.52;;
20170;SDS011;10245;51.344;6.620;2022-11-04T00:28:43;2.85;;;1.80;;
20170;SDS011;10245;51.344;6.620;2022-11-04T00:31:07;2.08;;;1.80;;
20170;SDS011;10245;51.344;6.620;2022-11-04T00:33:49;3.25;;;2.30;;
20170;SDS011;10245;51.344;6.620;2022-11-04T00:36:14;3.00;;;2.30;;
20170;SDS011;10245;51.344;6.620;2022-11-04T00:38:38;4.55;;;2.17;;
20170;SDS011;10245;51.344;6.620;2022-11-04T00:41:03;3.65;;;2.20;;
20170;SDS011;10245;51.344;6.620;2022-11-04T00:43:46;2.75;;;2.03;;
20170;SDS011;10245;51.344;6.620;2022-11-04T00:46:09;2.90;;;2.45;;
20170;SDS011;10245;51.344;6.620;2022-11-04T00:48:32;3.97;;;2.50;;
20170;SDS011;10245;51.344;6.620;2022-11-04T00:50:56;2.75;;;2.17;;
20170;SDS011;10245;51.344;6.620;2022-11-04T00:53:19;2.97;;;2.28;;
20170;SDS011;10245;51.344;6.620;2022-11-04T00:55:42;3.45;;;2.55;;
20170;SDS011;10245;51.344;6.620;2022-11-04T00:58:07;3.05;;;2.63;;
20170;SDS011;10245;51.344;6.620;2022-11-04T01:00:30;3.70;;;2.15;;
20170;SDS011;10245;51.344;6.620;2022-11-04T01:02:54;2.60;;;2.25;;
20170;SDS011;10245;51.344;6.620;2022-11-04T01:05:20;3.17;;;2.38;;
20170;SDS011;10245;51.344;6.620;2022-11-04T01:07:43;3.50;;;2.50;;
20170;SDS011;10245;51.344;6.620;2022-11-04T01:10:07;3.45;;;2.85;;
20170;SDS011;10245;51.344;6.620;2022-11-04T01:12:31;3.10;;;2.80;;
20170;SDS011;10245;51.344;6.620;2022-11-04T01:14:56;3.15;;;2.72;;
20170;SDS011;10245;51.344;6.620;2022-11-04T01:17:19;4.10;;;2.92;;
20170;SDS011;10245;51.344;6.620;2022-11-04T01:19:43;3.63;;;3.03;;
20170;SDS011;10245;51.344;6.620;2022-11-04T01:22:06;4.28;;;3.10;;
20170;SDS011;10245;51.344;6.620;2022-11-04T01:24:29;4.50;;;3.22;;
20170;SDS011;10245;51.344;6.620;2022-11-04T01:26:52;4.65;;;2.95;;
20170;SDS011;10245;51.344;6.620;2022-11-04T01:29:16;4.20;;;3.30;;
20170;SDS011;10245;51.344;6.620;2022-11-04T01:31:40;4.53;;;3.33;;
20170;SDS011;10245;51.344;6.620;2022-11-04T01:34:04;5.30;;;3.13;;
20170;SDS011;10245;51.344;6.620;2022-11-04T01:36:27;4.25;;;3.38;;
20170;SDS011;10245;51.344;6.620;2022-11-04T01:38:50;5.75;;;3.45;;
20170;SDS011;10245;51.344;6.620;2022-11-04T01:41:16;5.50;;;3.78;;
20170;SDS011;10245;51.344;6.620;2022-11-04T01:43:44;5.32;;;3.40;;
20170;SDS011;10245;51.344;6.620;2022-11-04T01:46:12;5.57;;;3.50;;
20170;SDS011;10245;51.344;6.620;2022-11-04T01:48:48;3.80;;;3.20;;
20170;SDS011;10245;51.344;6.620;2022-11-04T01:51:13;6.93;;;3.58;;
20170;SDS011;10245;51.344;6.620;2022-11-04T01:53:38;6.30;;;3.20;;
20170;SDS011;10245;51.344;6.620;2022-11-04T01:56:03;4.28;;;3.10;;
20170;SDS011;10245;51.344;6.620;2022-11-04T01:58:32;5.78;;;3.45;;
20170;SDS011;10245;51.344;6.620;2022-11-04T02:00:56;5.18;;;3.00;;
20170;SDS011;10245;51.344;6.620;2022-11-04T02:03:21;4.22;;;3.70;;
20170;SDS011;10245;51.344;6.620;2022-11-04T02:05:49;6.18;;;3.30;;
20170;SDS011;10245;51.344;6.620;2022-11-04T02:08:13;5.82;;;3.40;;
20170;SDS011;10245;51.344;6.620;2022-11-04T02:10:39;6.63;;;3.38;;
20170;SDS011;10245;51.344;6.620;2022-11-04T02:13:06;4.05;;;3.30;;
20170;SDS011;10245;51.344;6.620;2022-11-04T02:15:33;5.80;;;3.00;;
20170;SDS011;10245;51.344;6.620;2022-11-04T02:18:09;9.60;;;3.35;;
20170;SDS011;10245;51.344;6.620;2022-11-04T02:20:55;5.95;;;3.58;;
20170;SDS011;10245;51.344;6.620;2022-11-04T02:23:54;5.55;;;3.78;;
20170;SDS011;10245;51.344;6.620;2022-11-04T02:29:40;4.57;;;2.72;;
20170;SDS011;10245;51.344;6.620;2022-11-04T02:32:17;7.93;;;2.78;;
20170;SDS011;10245;51.344;6.620;2022-11-04T02:34:51;5.45;;;2.90;;
20170;SDS011;10245;51.344;6.620;2022-11-04T02:37:27;8.20;;;3.08;;
20170;SDS011;10245;51.344;6.620;2022-11-04T02:40:00;5.95;;;2.40;;
20170;SDS011;10245;51.344;6.620;2022-11-04T02:42:34;3.15;;;2.15;;
20170;SDS011;10245;51.344;6.620;2022-11-04T02:45:09;7.07;;;2.85;;
20170;SDS011;10245;51.344;6.620;2022-11-04T02:47:39;8.05;;;2.72;;
20170;SDS011;10245;51.344;6.620;2022-11-04T02:50:08;6.13;;;2.60;;
20170;SDS011;10245;51.344;6.620;2022-11-04T02:52:38;5.30;;;2.63;;
20170;SDS011;10245;51.344;6.620;2022-11-04T02:55:12;10.00;;;2.60;;
20170;SDS011;10245;51.344;6.620;2022-11-04T02:57:40;5.15;;;2.53;;
20170;SDS011;10245;51.344;6.620;2022-11-04T03:00:09;8.10;;;2.63;;
20170;SDS011;10245;51.344;6.620;2022-11-04T03:02:36;6.60;;;2.70;;
20170;SDS011;10245;51.344;6.620;2022-11-04T03:05:03;4.22;;;2.65;;
20170;SDS011;10245;51.344;6.620;2022-11-04T03:07:31;7.25;;;2.90;;
20170;SDS011;10245;51.344;6.620;2022-11-04T03:09:59;6.65;;;2.40;;
20170;SDS011;10245;51.344;6.620;2022-11-04T03:12:27;6.18;;;1.90;;
20170;SDS011;10245;51.344;6.620;2022-11-04T03:14:55;6.30;;;2.22;;
20170;SDS011;10245;51.344;6.620;2022-11-04T03:17:25;5.97;;;2.72;;
20170;SDS011;10245;51.344;6.620;2022-11-04T03:19:56;9.32;;;2.75;;
20170;SDS011;10245;51.344;6.620;2022-11-04T03:22:21;3.85;;;1.90;;
20170;SDS011;10245;51.344;6.620;2022-11-04T03:24:47;3.58;;;2.40;;
20170;SDS011;10245;51.344;6.620;2022-11-04T03:27:13;5.43;;;2.20;;
20170;SDS011;10245;51.344;6.620;2022-11-04T03:29:45;5.65;;;1.90;;
20170;SDS011;10245;51.344;6.620;2022-11-04T03:32:21;5.85;;;1.77;;
20170;SDS011;10245;51.344;6.620;2022-11-04T03:34:52;5.38;;;1.85;;
20170;SDS011;10245;51.344;6.620;2022-11-04T03:37:16;6.68;;;2.13;;
20170;SDS011;10245;51.344;6.620;2022-11-04T03:39:40;6.57;;;1.73;;
20170;SDS011;10245;51.344;6.620;2022-11-04T03:42:04;4.30;;;1.70;;
20170;SDS011;10245;51.344;6.620;2022-11-04T03:44:41;4.78;;;1.98;;
20170;SDS011;10245;51.344;6.620;2022-11-04T03:47:04;4.82;;;2.20;;
20170;SDS011;10245;51.344;6.620;2022-11-04T03:49:29;9.32;;;2.10;;
20170;SDS011;10245;51.344;6.620;2022-11-04T03:51:52;7.75;;;2.38;;
20170;SDS011;10245;51.344;6.620;2022-11-04T03:54:16;5.40;;;2.20;;
20170;SDS011;10245;51.344;6.620;2022-11-04T03:56:44;9.43;;;2.10;;
20170;SDS011;10245;51.344;6.620;2022-11-04T03:59:55;6.63;;;2.10;;
20170;SDS011;10245;51.344;6.620;2022-11-04T04:02:32;6.38;;;2.03;;
20170;SDS011;10245;51.344;6.620;2022-11-04T04:05:05;9.90;;;2.10;;
20170;SDS011;10245;51.344;6.620;2022-11-04T04:07:40;6.05;;;1.95;;
20170;SDS011;10245;51.344;6.620;2022-11-04T04:10:07;13.18;;;2.10;;
20170;SDS011;10245;51.344;6.620;2022-11-04T04:12:50;5.05;;;2.10;;
20170;SDS011;10245;51.344;6.620;2022-11-04T04:15:18;7.10;;;2.53;;
20170;SDS011;10245;51.344;6.620;2022-11-04T04:17:49;5.80;;;2.00;;
20170;SDS011;10245;51.344;6.620;2022-11-04T04:20:18;5.30;;;2.20;;
20170;SDS011;10245;51.344;6.620;2022-11-04T04:22:44;11.48;;;2.15;;
20170;SDS011;10245;51.344;6.620;2022-11-04T04:25:12;6.60;;;2.00;;
20170;SDS011;10245;51.344;6.620;2022-11-04T04:27:55;8.00;;;2.10;;
20170;SDS011;10245;51.344;6.620;2022-11-04T04:30:19;8.57;;;2.45;;
20170;SDS011;10245;51.344;6.620;2022-11-04T04:32:44;5.20;;;1.77;;
20170;SDS011;10245;51.344;6.620;2022-11-04T04:35:09;6.25;;;2.17;;
20170;SDS011;10245;51.344;6.620;2022-11-04T04:37:53;5.40;;;2.20;;
20170;SDS011;10245;51.344;6.620;2022-11-04T04:40:42;4.60;;;2.50;;
20170;SDS011;10245;51.344;6.620;2022-11-04T04:43:26;5.65;;;2.47;;
20170;SDS011;10245;51.344;6.620;2022-11-04T04:46:07;4.75;;;2.72;;
20170;SDS011;10245;51.344;6.620;2022-11-04T04:48:30;8.15;;;2.50;;
20170;SDS011;10245;51.344;6.620;2022-11-04T04:50:54;7.05;;;2.40;;
20170;SDS011;10245;51.344;6.620;2022-11-04T04:53:23;6.72;;;2.10;;
20170;SDS011;10245;51.344;6.620;2022-11-04T04:55:46;7.30;;;2.00;;
20170;SDS011;10245;51.344;6.620;2022-11-04T04:58:10;8.02;;;2.13;;
20170;SDS011;10245;51.344;6.620;2022-11-04T05:00:33;3.67;;;1.90;;
20170;SDS011;10245;51.344;6.620;2022-11-04T05:02:56;7.93;;;2.33;;
20170;SDS011;10245;51.344;6.620;2022-11-04T05:05:20;5.38;;;1.77;;
20170;SDS011;10245;51.344;6.620;2022-11-04T05:07:43;7.68;;;2.00;;
20170;SDS011;10245;51.344;6.620;2022-11-04T05:10:09;7.60;;;2.42;;
20170;SDS011;10245;51.344;6.620;2022-11-04T05:12:34;5.28;;;1.85;;
20170;SDS011;10245;51.344;6.620;2022-11-04T05:15:16;9.00;;;2.33;;
20170;SDS011;10245;51.344;6.620;2022-11-04T05:17:39;9.80;;;2.83;;
20170;SDS011;10245;51.344;6.620;2022-11-04T05:20:02;9.40;;;2.28;;
20170;SDS011;10245;51.344;6.620;2022-11-04T05:22:26;7.28;;;2.45;;
20170;SDS011;10245;51.344;6.620;2022-11-04T05:24:50;4.82;;;2.17;;
20170;SDS011;10245;51.344;6.620;2022-11-04T05:27:14;7.80;;;2.40;;
20170;SDS011;10245;51.344;6.620;2022-11-04T05:29:38;7.22;;;3.28;;
20170;SDS011;10245;51.344;6.620;2022-11-04T05:32:01;6.82;;;2.15;;
20170;SDS011;10245;51.344;6.620;2022-11-04T05:34:24;10.93;;;2.60;;
20170;SDS011;10245;51.344;6.620;2022-11-04T05:36:47;4.70;;;2.30;;
20170;SDS011;10245;51.344;6.620;2022-11-04T05:39:11;10.27;;;2.47;;
20170;SDS011;10245;51.344;6.620;2022-11-04T05:41:35;6.22;;;2.08;;
20170;SDS011;10245;51.344;6.620;2022-11-04T05:44:00;5.50;;;2.17;;
20170;SDS011;10245;51.344;6.620;2022-11-04T05:46:25;7.20;;;2.20;;
20170;SDS011;10245;51.344;6.620;2022-11-04T05:48:49;7.63;;;2.55;;
20170;SDS011;10245;51.344;6.620;2022-11-04T05:51:13;7.75;;;2.40;;
20170;SDS011;10245;51.344;6.620;2022-11-04T05:53:37;8.93;;;2.28;;
20170;SDS011;10245;51.344;6.620;2022-11-04T05:56:00;7.22;;;2.10;;
20170;SDS011;10245;51.344;6.620;2022-11-04T05:58:24;4.90;;;2.50;;
20170;SDS011;10245;51.344;6.620;2022-11-04T06:00:48;3.53;;;1.75;;
20170;SDS011;10245;51.344;6.620;2022-11-04T06:03:12;7.93;;;2.13;;
20170;SDS011;10245;51.344;6.620;2022-11-04T06:05:36;5.20;;;1.92;;
20170;SDS011;10245;51.344;6.620;2022-11-04T06:08:00;5.45;;;1.98;;
20170;SDS011;10245;51.344;6.620;2022-11-04T06:10:23;5.63;;;2.25;;
20170;SDS011;10245;51.344;6.620;2022-11-04T06:12:47;5.05;;;2.38;;
20170;SDS011;10245;51.344;6.620;2022-11-04T06:15:10;6.93;;;3.25;;
20170;SDS011;10245;51.344;6.620;2022-11-04T06:17:35;5.00;;;3.00;;
20170;SDS011;10245;51.344;6.620;2022-11-04T06:19:58;8.88;;;3.03;;
20170;SDS011;10245;51.344;6.620;2022-11-04T06:22:21;9.30;;;4.03;;
20170;SDS011;10245;51.344;6.620;2022-11-04T06:24:45;5.15;;;2.33;;
20170;SDS011;10245;51.344;6.620;2022-11-04T06:27:08;10.05;;;2.40;;
20170;SDS011;10245;51.344;6.620;2022-11-04T06:29:32;7.30;;;2.63;;
20170;SDS011;10245;51.344;6.620;2022-11-04T06:31:56;6.63;;;2.55;;
20170;SDS011;10245;51.344;6.620;2022-11-04T06:34:21;5.50;;;2.40;;
20170;SDS011;10245;51.344;6.620;2022-11-04T06:36:44;9.57;;;3.13;;
20170;SDS011;10245;51.344;6.620;2022-11-04T06:39:08;7.38;;;2.88;;
20170;SDS011;10245;51.344;6.620;2022-11-04T06:41:31;4.88;;;2.53;;
20170;SDS011;10245;51.344;6.620;2022-11-04T06:43:54;10.38;;;3.90;;
20170;SDS011;10245;51.344;6.620;2022-11-04T06:46:24;8.95;;;2.53;;
20170;SDS011;10245;51.344;6.620;2022-11-04T06:48:50;8.57;;;3.58;;
20170;SDS011;10245;51.344;6.620;2022-11-04T06:51:15;7.22;;;3.50;;
20170;SDS011;10245;51.344;6.620;2022-11-04T06:53:38;10.30;;;4.28;;
20170;SDS011;10245;51.344;6.620;2022-11-04T06:56:02;10.65;;;3.55;;
20170;SDS011;10245;51.344;6.620;2022-11-04T06:58:26;9.30;;;3.65;;
20170;SDS011;10245;51.344;6.620;2022-11-04T07:00:50;11.90;;;3.90;;
20170;SDS011;10245;51.344;6.620;2022-11-04T07:03:15;12.38;;;3.08;;
20170;SDS011;10245;51.344;6.620;2022-11-04T07:05:38;12.65;;;3.75;;
20170;SDS011;10245;51.344;6.620;2022-11-04T07:08:03;10.32;;;3.15;;
20170;SDS011;10245;51.344;6.620;2022-11-04T07:10:27;12.23;;;3.70;;
20170;SDS011;10245;51.344;6.620;2022-11-04T07:12:50;12.70;;;3.80;;
20170;SDS011;10245;51.344;6.620;2022-11-04T07:15:15;10.02;;;3.75;;
20170;SDS011;10245;51.344;6.620;2022-11-04T07:17:43;16.15;;;3.55;;
20170;SDS011;10245;51.344;6.620;2022-11-04T07:20:07;10.13;;;3.58;;
20170;SDS011;10245;51.344;6.620;2022-11-04T07:22:33;8.43;;;3.90;;
20170;SDS011;10245;51.344;6.620;2022-11-04T07:24:58;7.22;;;3.25;;
20170;SDS011;10245;51.344;6.620;2022-11-04T07:27:21;11.30;;;3.42;;
20170;SDS011;10245;51.344;6.620;2022-11-04T07:29:44;8.73;;;3.85;;
20170;SDS011;10245;51.344;6.620;2022-11-04T07:32:08;10.15;;;3.33;;
20170;SDS011;10245;51.344;6.620;2022-11-04T07:34:31;8.43;;;3.20;;
20170;SDS011;10245;51.344;6.620;2022-11-04T07:36:55;7.50;;;3.30;;
20170;SDS011;10245;51.344;6.620;2022-11-04T07:39:18;11.43;;;3.15;;
20170;SDS011;10245;51.344;6.620;2022-11-04T07:41:43;12.77;;;3.50;;
20170;SDS011;10245;51.344;6.620;2022-11-04T07:44:06;9.77;;;3.53;;
20170;SDS011;10245;51.344;6.620;2022-11-04T07:46:32;10.25;;;3.40;;
20170;SDS011;10245;51.344;6.620;2022-11-04T07:48:55;10.68;;;3.50;;
20170;SDS011;10245;51.344;6.620;2022-11-04T07:51:19;10.27;;;3.35;;
20170;SDS011;10245;51.344;6.620;2022-11-04T07:53:43;7.93;;;3.13;;
20170;SDS011;10245;51.344;6.620;2022-11-04T07:56:07;9.55;;;3.05;;
20170;SDS011;10245;51.344;6.620;2022-11-04T07:58:34;10.35;;;3.28;;
20170;SDS011;10245;51.344;6.620;2022-11-04T08:00:58;11.68;;;3.03;;
20170;SDS011;10245;51.344;6.620;2022-11-04T08:03:22;7.75;;;3.20;;
20170;SDS011;10245;51.344;6.620;2022-11-04T08:05:46;8.95;;;3.28;;
20170;SDS011;10245;51.344;6.620;2022-11-04T08:08:09;12.00;;;3.35;;
20170;SDS011;10245;51.344;6.620;2022-11-04T08:10:32;12.90;;;3.97;;
20170;SDS011;10245;51.344;6.620;2022-11-04T08:12:56;12.30;;;3.83;;
20170;SDS011;10245;51.344;6.620;2022-11-04T08:15:21;11.27;;;3.70;;
20170;SDS011;10245;51.344;6.620;2022-11-04T08:17:44;8.35;;;2.95;;
20170;SDS011;10245;51.344;6.620;2022-11-04T08:20:07;10.88;;;3.40;;
20170;SDS011;10245;51.344;6.620;2022-11-04T08:22:33;11.07;;;3.40;;
20170;SDS011;10245;51.344;6.620;2022-11-04T08:24:56;10.60;;;3.65;;
20170;SDS011;10245;51.344;6.620;2022-11-04T08:27:20;11.18;;;3.40;;
20170;SDS011;10245;51.344;6.620;2022-11-04T08:29:43;8.90;;;3.42;;
20170;SDS011;10245;51.344;6.620;2022-11-04T08:32:08;10.38;;;3.42;;
20170;SDS011;10245;51.344;6.620;2022-11-04T08:34:31;9.73;;;3.50;;
20170;SDS011;10245;51.344;6.620;2022-11-04T08:36:55;10.30;;;3.78;;
20170;SDS011;10245;51.344;6.620;2022-11-04T08:39:19;9.63;;;3.78;;
20170;SDS011;10245;51.344;6.620;2022-11-04T08:41:42;12.82;;;4.55;;
20170;SDS011;10245;51.344;6.620;2022-11-04T08:44:06;10.82;;;4.53;;
20170;SDS011;10245;51.344;6.620;2022-11-04T08:46:30;17.77;;;4.20;;
20170;SDS011;10245;51.344;6.620;2022-11-04T08:48:59;8.65;;;4.82;;
20170;SDS011;10245;51.344;6.620;2022-11-04T08:51:30;13.90;;;4.15;;
20170;SDS011;10245;51.344;6.620;2022-11-04T08:53:55;11.10;;;4.40;;
20170;SDS011;10245;51.344;6.620;2022-11-04T08:56:20;9.93;;;4.07;;
20170;SDS011;10245;51.344;6.620;2022-11-04T08:58:45;10.20;;;4.53;;
20170;SDS011;10245;51.344;6.620;2022-11-04T09:01:09;12.52;;;4.40;;
20170;SDS011;10245;51.344;6.620;2022-11-04T09:03:33;12.88;;;3.90;;
20170;SDS011;10245;51.344;6.620;2022-11-04T09:06:00;8.68;;;4.03;;
20170;SDS011;10245;51.344;6.620;2022-11-04T09:08:23;10.70;;;4.40;;
20170;SDS011;10245;51.344;6.620;2022-11-04T09:10:46;11.10;;;3.85;;
20170;SDS011;10245;51.344;6.620;2022-11-04T09:13:10;9.32;;;4.30;;
20170;SDS011;10245;51.344;6.620;2022-11-04T09:15:34;13.40;;;4.43;;
20170;SDS011;10245;51.344;6.620;2022-11-04T09:17:57;14.65;;;5.18;;
20170;SDS011;10245;51.344;6.620;2022-11-04T09:20:20;11.02;;;3.75;;
20170;SDS011;10245;51.344;6.620;2022-11-04T09:22:45;7.93;;;3.90;;
20170;SDS011;10245;51.344;6.620;2022-11-04T09:25:10;9.30;;;3.78;;
20170;SDS011;10245;51.344;6.620;2022-11-04T09:27:34;13.50;;;4.65;;
20170;SDS011;10245;51.344;6.620;2022-11-04T09:29:57;14.30;;;3.97;;
20170;SDS011;10245;51.344;6.620;2022-11-04T09:32:21;10.52;;;3.92;;
20170;SDS011;10245;51.344;6.620;2022-11-04T09:34:44;9.07;;;3.13;;
20170;SDS011;10245;51.344;6.620;2022-11-04T09:37:07;13.40;;;3.53;;
20170;SDS011;10245;51.344;6.620;2022-11-04T09:39:32;8.90;;;4.03;;
20170;SDS011;10245;51.344;6.620;2022-11-04T09:42:05;8.75;;;3.45;;
20170;SDS011;10245;51.344;6.620;2022-11-04T09:44:47;12.75;;;3.20;;
20170;SDS011;10245;51.344;6.620;2022-11-04T09:47:36;9.85;;;3.45;;
20170;SDS011;10245;51.344;6.620;2022-11-04T09:50:02;10.27;;;3.28;;
20170;SDS011;10245;51.344;6.620;2022-11-04T09:52:32;10.23;;;3.50;;
20170;SDS011;10245;51.344;6.620;2022-11-04T09:55:02;10.02;;;3.50;;
20170;SDS011;10245;51.344;6.620;2022-11-04T09:57:34;10.02;;;3.53;;
20170;SDS011;10245;51.344;6.620;2022-11-04T09:59:57;9.93;;;3.58;;
20170;SDS011;10245;51.344;6.620;2022-11-04T10:02:33;10.65;;;4.15;;
20170;SDS011;10245;51.344;6.620;2022-11-04T10:05:25;10.35;;;4.13;;
20170;SDS011;10245;51.344;6.620;2022-11-04T10:11:25;9.23;;;3.50;;
20170;SDS011;10245;51.344;6.620;2022-11-04T10:14:05;14.40;;;3.90;;
20170;SDS011;10245;51.344;6.620;2022-11-04T10:16:47;8.20;;;3.60;;
20170;SDS011;10245;51.344;6.620;2022-11-04T10:19:28;9.50;;;4.00;;
20170;SDS011;10245;51.344;6.620;2022-11-04T10:22:03;12.38;;;3.60;;
20170;SDS011;10245;51.344;6.620;2022-11-04T10:24:40;11.05;;;4.13;;
20170;SDS011;10245;51.344;6.620;2022-11-04T10:27:13;10.25;;;4.10;;
20170;SDS011;10245;51.344;6.620;2022-11-04T10:29:40;12.38;;;3.60;;
20170;SDS011;10245;51.344;6.620;2022-11-04T10:32:11;12.30;;;3.97;;
20170;SDS011;10245;51.344;6.620;2022-11-04T10:34:44;11.00;;;3.83;;
20170;SDS011;10245;51.344;6.620;2022-11-04T10:37:12;9.80;;;3.38;;
20170;SDS011;10245;51.344;6.620;2022-11-04T10:39:36;7.43;;;3.67;;
20170;SDS011;10245;51.344;6.620;2022-11-04T10:42:04;14.93;;;4.68;;
20170;SDS011;10245;51.344;6.620;2022-11-04T10:44:30;10.30;;;4.10;;
20170;SDS011;10245;51.344;6.620;2022-11-04T10:46:58;9.70;;;4.20;;
20170;SDS011;10245;51.344;6.620;2022-11-04T10:49:44;9.68;;;4.00;;
20170;SDS011;10245;51.344;6.620;2022-11-04T10:52:42;9.63;;;4.18;;
20170;SDS011;10245;51.344;6.620;2022-11-04T10:55:09;8.48;;;3.63;;
20170;SDS011;10245;51.344;6.620;2022-11-04T10:57:40;10.23;;;3.10;;
20170;SDS011;10245;51.344;6.620;2022-11-04T11:00:05;11.93;;;3.13;;
20170;SDS011;10245;51.344;6.620;2022-11-04T11:02:43;7.45;;;3.22;;
20170;SDS011;10245;51.344;6.620;2022-11-04T11:05:12;8.73;;;3.60;;
20170;SDS011;10245;51.344;6.620;2022-11-04T11:07:45;11.80;;;3.00;;
20170;SDS011;10245;51.344;6.620;2022-11-04T11:10:15;8.25;;;3.28;;
20170;SDS011;10245;51.344;6.620;2022-11-04T11:12:41;11.85;;;3.10;;
20170;SDS011;10245;51.344;6.620;2022-11-04T11:15:18;5.60;;;2.90;;
20170;SDS011;10245;51.344;6.620;2022-11-04T11:17:52;9.77;;;2.67;;
20170;SDS011;10245;51.344;6.620;2022-11-04T11:20:23;8.80;;;3.22;;
20170;SDS011;10245;51.344;6.620;2022-11-04T11:22:48;9.20;;;3.05;;
20170;SDS011;10245;51.344;6.620;2022-11-04T11:25:16;7.80;;;2.92;;
20170;SDS011;10245;51.344;6.620;2022-11-04T11:27:48;6.38;;;2.70;;
20170;SDS011;10245;51.344;6.620;2022-11-04T11:30:28;7.78;;;2.72;;
20170;SDS011;10245;51.344;6.620;2022-11-04T11:32:55;11.32;;;3.10;;
20170;SDS011;10245;51.344;6.620;2022-11-04T11:35:28;13.20;;;3.00;;
20170;SDS011;10245;51.344;6.620;2022-11-04T11:38:01;8.18;;;3.65;;
20170;SDS011;10245;51.344;6.620;2022-11-04T11:40:28;8.45;;;2.72;;
20170;SDS011;10245;51.344;6.620;2022-11-04T11:42:54;7.75;;;3.00;;
20170;SDS011;10245;51.344;6.620;2022-11-04T11:45:18;7.80;;;2.88;;
20170;SDS011;10245;51.344;6.620;2022-11-04T11:47:47;8.55;;;2.63;;
20170;SDS011;10245;51.344;6.620;2022-11-04T11:50:16;8.38;;;2.70;;
20170;SDS011;10245;51.344;6.620;2022-11-04T11:52:44;12.43;;;3.10;;
20170;SDS011;10245;51.344;6.620;2022-11-04T11:55:11;9.90;;;2.88;;
20170;SDS011;10245;51.344;6.620;2022-11-04T11:57:46;10.75;;;2.95;;
20170;SDS011;10245;51.344;6.620;2022-11-04T12:00:41;9.77;;;3.05;;
20170;SDS011;10245;51.344;6.620;2022-11-04T12:03:21;9.48;;;2.63;;
20170;SDS011;10245;51.344;6.620;2022-11-04T12:06:17;8.20;;;2.60;;
20170;SDS011;10245;51.344;6.620;2022-11-04T12:09:22;7.50;;;2.45;;
20170;SDS011;10245;51.344;6.620;2022-11-04T12:12:04;10.65;;;2.78;;
20170;SDS011;10245;51.344;6.620;2022-11-04T12:14:50;9.38;;;2.55;;
20170;SDS011;10245;51.344;6.620;2022-11-04T12:17:35;6.30;;;2.03;;
20170;SDS011;10245;51.344;6.620;2022-11-04T12:20:20;9.10;;;2.38;;
20170;SDS011;10245;51.344;6.620;2022-11-04T12:22:57;7.88;;;2.58;;
20170;SDS011;10245;51.344;6.620;2022-11-04T12:25:27;7.05;;;2.63;;
20170;SDS011;10245;51.344;6.620;2022-11-04T12:27:58;7.82;;;2.42;;
20170;SDS011;10245;51.344;6.620;2022-11-04T12:30:30;7.57;;;2.50;;
20170;SDS011;10245;51.344;6.620;2022-11-04T12:33:05;9.25;;;2.75;;
20170;SDS011;10245;51.344;6.620;2022-11-04T12:35:42;11.35;;;3.03;;
20170;SDS011;10245;51.344;6.620;2022-11-04T12:38:22;11.20;;;3.10;;
20170;SDS011;10245;51.344;6.620;2022-11-04T12:41:02;9.50;;;2.88;;
20170;SDS011;10245;51.344;6.620;2022-11-04T12:43:55;8.02;;;2.92;;
20170;SDS011;10245;51.344;6.620;2022-11-04T12:46:28;12.02;;;3.40;;
20170;SDS011;10245;51.344;6.620;2022-11-04T12:52:23;10.73;;;2.70;;
20170;SDS011;10245;51.344;6.620;2022-11-04T12:55:18;9.60;;;3.85;;
20170;SDS011;10245;51.344;6.620;2022-11-04T12:58:06;9.90;;;2.88;;
20170;SDS011;10245;51.344;6.620;2022-11-04T13:00:46;12.95;;;3.20;;
20170;SDS011;10245;51.344;6.620;2022-11-04T13:03:22;9.52;;;3.05;;
20170;SDS011;10245;51.344;6.620;2022-11-04T13:05:52;11.05;;;3.28;;
20170;SDS011;10245;51.344;6.620;2022-11-04T13:08:25;6.38;;;2.60;;
20170;SDS011;10245;51.344;6.620;2022-11-04T13:10:56;9.30;;;3.38;;
20170;SDS011;10245;51.344;6.620;2022-11-04T13:13:25;8.77;;;2.80;;
20170;SDS011;10245;51.344;6.620;2022-11-04T13:15:55;8.60;;;2.92;;
20170;SDS011;10245;51.344;6.620;2022-11-04T13:18:21;9.20;;;2.72;;
20170;SDS011;10245;51.344;6.620;2022-11-04T13:20:49;7.72;;;2.40;;
20170;SDS011;10245;51.344;6.620;2022-11-04T13:23:25;8.00;;;2.55;;
20170;SDS011;10245;51.344;6.620;2022-11-04T13:25:53;8.85;;;2.80;;
20170;SDS011;10245;51.344;6.620;2022-11-04T13:28:19;8.82;;;2.95;;
20170;SDS011;10245;51.344;6.620;2022-11-04T13:30:45;10.38;;;2.90;;
20170;SDS011;10245;51.344;6.620;2022-11-04T13:33:20;5.95;;;3.00;;
20170;SDS011;10245;51.344;6.620;2022-11-04T13:35:54;5.82;;;2.88;;
20170;SDS011;10245;51.344;6.620;2022-11-04T13:38:27;10.82;;;3.40;;
20170;SDS011;10245;51.344;6.620;2022-11-04T13:40:56;7.97;;;2.63;;
20170;SDS011;10245;51.344;6.620;2022-11-04T13:43:41;11.38;;;3.40;;
20170;SDS011;10245;51.344;6.620;2022-11-04T13:46:17;6.45;;;2.75;;
20170;SDS011;10245;51.344;6.620;2022-11-04T13:48:52;9.48;;;3.33;;
20170;SDS011;10245;51.344;6.620;2022-11-04T13:51:21;10.93;;;3.42;;
20170;SDS011;10245;51.344;6.620;2022-11-04T13:53:47;11.00;;;3.65;;
20170;SDS011;10245;51.344;6.620;2022-11-04T13:56:26;11.35;;;3.10;;
20170;SDS011;10245;51.344;6.620;2022-11-04T13:58:56;12.20;;;3.35;;
20170;SDS011;10245;51.344;6.620;2022-11-04T14:01:27;10.68;;;3.50;;
20170;SDS011;10245;51.344;6.620;2022-11-04T14:03:53;11.63;;;3.50;;
20170;SDS011;10245;51.344;6.620;2022-11-04T14:09:23;8.30;;;3.35;;
20170;SDS011;10245;51.344;6.620;2022-11-04T14:12:22;13.40;;;3.58;;
20170;SDS011;10245;51.344;6.620;2022-11-04T14:14:54;13.27;;;3.10;;
20170;SDS011;10245;51.344;6.620;2022-11-04T14:20:21;8.27;;;3.50;;
20170;SDS011;10245;51.344;6.620;2022-11-04T14:22:48;10.70;;;2.70;;
20170;SDS011;10245;51.344;6.620;2022-11-04T14:25:20;10.60;;;3.10;;
20170;SDS011;10245;51.344;6.620;2022-11-04T14:27:51;9.20;;;3.22;;
20170;SDS011;10245;51.344;6.620;2022-11-04T14:33:07;9.35;;;3.03;;
20170;SDS011;10245;51.344;6.620;2022-11-04T14:36:12;10.90;;;2.97;;
20170;SDS011;10245;51.344;6.620;2022-11-04T14:38:50;13.05;;;3.55;;
20170;SDS011;10245;51.344;6.620;2022-11-04T14:41:21;8.25;;;2.95;;
20170;SDS011;10245;51.344;6.620;2022-11-04T14:43:53;10.25;;;3.42;;
20170;SDS011;10245;51.344;6.620;2022-11-04T14:46:20;9.45;;;3.15;;
20170;SDS011;10245;51.344;6.620;2022-11-04T14:48:46;11.40;;;3.83;;
20170;SDS011;10245;51.344;6.620;2022-11-04T14:51:19;8.10;;;3.15;;
20170;SDS011;10245;51.344;6.620;2022-11-04T14:53:46;12.25;;;3.67;;
20170;SDS011;10245;51.344;6.620;2022-11-04T14:56:12;12.85;;;3.78;;
20170;SDS011;10245;51.344;6.620;2022-11-04T14:58:54;10.32;;;3.25;;
20170;SDS011;10245;51.344;6.620;2022-11-04T15:01:19;9.45;;;3.53;;
20170;SDS011;10245;51.344;6.620;2022-11-04T15:03:43;12.55;;;3.50;;
20170;SDS011;10245;51.344;6.620;2022-11-04T15:06:28;11.00;;;3.75;;
20170;SDS011;10245;51.344;6.620;2022-11-04T15:09:19;12.52;;;4.15;;
20170;SDS011;10245;51.344;6.620;2022-11-04T15:11:45;10.68;;;3.50;;
20170;SDS011;10245;51.344;6.620;2022-11-04T15:14:27;10.02;;;3.60;;